Terminal Aerodrome Forecast
Issued by NWS

Home | Current Version | Previous Version | Text Only | Print | Product List | Glossary On
Versions: 1 2 3 4 5 6 7 8 9 10 11 12 13 14
000
FTUS43 KEAX 201126
TAFSTJ
TAF
KSTJ 201126Z 2012/2112 34009KT P6SM -FZRA OVC008
      TEMPO 2012/2016 4SM BR
     FM201600 33012KT P6SM VCSH OVC015
     FM201800 33013KT P6SM OVC020
     FM202000 33014KT P6SM BKN045
     FM202200 34012KT P6SM SCT150=

USA.gov is the U.S. government's official web portal to all federal, state and local government web resources and services.